Observation data for Seminole on 02/24/2021      Previous  Date  Next       Current Mesonet Observations  Soil Data  Daily Summary Page  Observations in Plain Language
KSM1 240600Z 25008KT 09/M12 A2991 RMK A01 T00861122  RH  022%=      5-min Rain = 0
KSM1 240605Z 25007KT 08/M12 A2991 RMK A01 T00821121  RH  022%=      5-min Rain = 0
KSM1 240610Z 26007KT 08/M12 A2991 RMK A01 T00791121  RH  023%=      5-min Rain = 0
KSM1 240615Z 26008KT 08/M12 A2991 RMK A01 T00801120  RH  023%=      5-min Rain = 0
KSM1 240620Z 25007KT 09/M12 A2991 RMK A01 T00851120  RH  022%=      5-min Rain = 0
KSM1 240625Z 25007KT 08/M12 A2991 RMK A01 T00771119  RH  023%=      5-min Rain = 0
KSM1 240630Z 26007KT 07/M12 A2991 RMK A01 T00741119  RH  024%=      5-min Rain = 0
KSM1 240635Z 27009KT 08/M12 A2991 RMK A01 T00821119  RH  023%=      5-min Rain = 0
KSM1 240640Z 27010KT 08/M12 A2991 RMK A01 T00821120  RH  022%=      5-min Rain = 0
KSM1 240645Z 27010KT 08/M12 A2991 RMK A01 T00841120  RH  022%=      5-min Rain = 0
KSM1 240650Z 27009KT 09/M12 A2991 RMK A01 T00871120  RH  022%=      5-min Rain = 0
KSM1 240655Z 26008KT 09/M12 A2991 RMK A01 T00921121  RH  021%=      5-min Rain = 0
KSM1 240700Z 26006KT 08/M12 A2991 RMK A01 T00841120  RH  022%=      5-min Rain = 0
KSM1 240705Z 27008KT 08/M12 A2991 RMK A01 T00801119  RH  023%=      5-min Rain = 0
KSM1 240710Z 27008KT 08/M12 A2991 RMK A01 T00801120  RH  023%=      5-min Rain = 0
KSM1 240715Z 29006KT 07/M12 A2992 RMK A01 T00711119  RH  024%=      5-min Rain = 0
KSM1 240720Z 29006KT 06/M12 A2992 RMK A01 T00571115  RH  028%=      5-min Rain = 0
KSM1 240725Z 29006KT 05/M11 A2992 RMK A01 T00541113  RH  029%=      5-min Rain = 0
KSM1 240730Z 29007KT 06/M12 A2993 RMK A01 T00571115  RH  028%=      5-min Rain = 0
KSM1 240735Z 28006KT 06/M12 A2993 RMK A01 T00581116  RH  027%=      5-min Rain = 0
KSM1 240740Z 27006KT 07/M12 A2993 RMK A01 T00651118  RH  025%=      5-min Rain = 0
KSM1 240745Z 27006KT 06/M12 A2993 RMK A01 T00641120  RH  025%=      5-min Rain = 0
KSM1 240750Z 24005KT 06/M12 A2994 RMK A01 T00581120  RH  026%=      5-min Rain = 0
KSM1 240755Z 23005KT 05/M12 A2994 RMK A01 T00491120  RH  028%=      5-min Rain = 0
KSM1 240800Z 24007KT 05/M12 A2994 RMK A01 T00491119  RH  028%=      5-min Rain = 0
KSM1 240805Z 25007KT 05/M12 A2994 RMK A01 T00471119  RH  029%=      5-min Rain = 0
KSM1 240810Z 26008KT 05/M12 A2994 RMK A01 T00481118  RH  029%=      5-min Rain = 0
KSM1 240815Z 26008KT 05/M12 A2994 RMK A01 T00521117  RH  028%=      5-min Rain = 0
KSM1 240820Z 27008KT 06/M12 A2994 RMK A01 T00591117  RH  027%=      5-min Rain = 0
KSM1 240825Z 28008KT 06/M12 A2995 RMK A01 T00561117  RH  027%=      5-min Rain = 0
KSM1 240830Z 27009KT 05/M12 A2995 RMK A01 T00501116  RH  029%=      5-min Rain = 0
KSM1 240835Z 27009KT 05/M12 A2995 RMK A01 T00521116  RH  028%=      5-min Rain = 0
KSM1 240840Z 28008KT 05/M12 A2995 RMK A01 T00541117  RH  028%=      5-min Rain = 0
KSM1 240845Z 28008KT 06/M12 A2994 RMK A01 T00571117  RH  027%=      5-min Rain = 0
KSM1 240850Z 28008KT 06/M12 A2994 RMK A01 T00571115  RH  028%=      5-min Rain = 0
KSM1 240855Z 28008KT 06/M11 A2995 RMK A01 T00631114  RH  027%=      5-min Rain = 0
KSM1 240900Z 27009KT 07/M12 A2994 RMK A01 T00691115  RH  025%=      5-min Rain = 0
KSM1 240905Z 26011KT 08/M12 A2994 RMK A01 T00791119  RH  023%=      5-min Rain = 0
KSM1 240910Z 27011KT 09/M12 A2994 RMK A01 T00851122  RH  022%=      5-min Rain = 0
KSM1 240915Z 27010KT 08/M12 A2994 RMK A01 T00761121  RH  023%=      5-min Rain = 0
KSM1 240920Z 27011KT 07/M12 A2994 RMK A01 T00671120  RH  025%=      5-min Rain = 0
KSM1 240925Z 28009KT 07/M12 A2994 RMK A01 T00691120  RH  024%=      5-min Rain = 0
KSM1 240930Z 28007KT 07/M12 A2994 RMK A01 T00711118  RH  024%=      5-min Rain = 0
KSM1 240935Z 29008KT 07/M12 A2995 RMK A01 T00721117  RH  025%=      5-min Rain = 0
KSM1 240940Z 29006KT 07/M12 A2995 RMK A01 T00731116  RH  025%=      5-min Rain = 0
KSM1 240945Z 30005KT 08/M12 A2995 RMK A01 T00751115  RH  024%=      5-min Rain = 0
KSM1 240950Z 31006KT 08/M12 A2996 RMK A01 T00791118  RH  023%=      5-min Rain = 0
KSM1 240955Z 30007KT 08/M12 A2996 RMK A01 T00841122  RH  022%=      5-min Rain = 0
KSM1 241000Z 30007KT 09/M12 A2996 RMK A01 T00861123  RH  021%=      5-min Rain = 0
KSM1 241005Z 30007KT 09/M12 A2996 RMK A01 T00871122  RH  021%=      5-min Rain = 0
KSM1 241010Z 29006KT 09/M12 A2996 RMK A01 T00851122  RH  022%=      5-min Rain = 0
KSM1 241015Z 29005KT 08/M12 A2996 RMK A01 T00821121  RH  022%=      5-min Rain = 0
KSM1 241020Z 30005KT 08/M12 A2996 RMK A01 T00771120  RH  023%=      5-min Rain = 0
KSM1 241025Z 32007KT 07/M12 A2997 RMK A01 T00721122  RH  023%=      5-min Rain = 0
KSM1 241030Z 00016G23KT 06/M12 A30 RMK A01 T00561119  RH  027%=      5-min Rain = 0
KSM1 241035Z 35015KT 06/M11 A3001 RMK A01 T00551114  RH  028%=      5-min Rain = 0
KSM1 241040Z 34013G19KT 06/M11 A3001 RMK A01 T00601106  RH  029%=      5-min Rain = 0
KSM1 241045Z 35014KT 07/M09 A3001 RMK A01 T00701093  RH  030%=      5-min Rain = 0
KSM1 241050Z 35015KT 07/M09 A3001 RMK A01 T00701090  RH  031%=      5-min Rain = 0
KSM1 241055Z 36014G20KT 07/M09 A3001 RMK A01 T00671086  RH  033%=      5-min Rain = 0
KSM1 241100Z 35016G23KT 07/M08 A3001 RMK A01 T00691077  RH  034%=      5-min Rain = 0
KSM1 241105Z 00015G21KT 07/M07 A3002 RMK A01 T00671072  RH  036%=      5-min Rain = 0
KSM1 241110Z 00016G24KT 07/M06 A3002 RMK A01 T00721064  RH  037%=      5-min Rain = 0
KSM1 241115Z 00013KT 06/M07 A3002 RMK A01 T00641072  RH  037%=      5-min Rain = 0
KSM1 241120Z 00013KT 06/M07 A3003 RMK A01 T00591071  RH  039%=      5-min Rain = 0
KSM1 241125Z 36012KT 05/M07 A3003 RMK A01 T00541071  RH  040%=      5-min Rain = 0
KSM1 241130Z 00014KT 06/M07 A3004 RMK A01 T00561066  RH  041%=      5-min Rain = 0
KSM1 241135Z 01013KT 06/M06 A3004 RMK A01 T00561062  RH  042%=      5-min Rain = 0
KSM1 241140Z 01012KT 06/M06 A3005 RMK A01 T00571058  RH  043%=      5-min Rain = 0
KSM1 241145Z 02012KT 06/M06 A3005 RMK A01 T00551057  RH  044%=      5-min Rain = 0
KSM1 241150Z 01011KT 05/M06 A3005 RMK A01 T00521056  RH  046%=      5-min Rain = 0
KSM1 241155Z 01011KT 05/M06 A3005 RMK A01 T00501055  RH  047%=      5-min Rain = 0
KSM1 241200Z 00012KT 05/M05 A3006 RMK A01 T00491052  RH  048%=      5-min Rain = 0
KSM1 241205Z 01012KT 05/M05 A3006 RMK A01 T00501051  RH  048%=      5-min Rain = 0
KSM1 241210Z 01012KT 05/M05 A3006 RMK A01 T00511049  RH  049%=      5-min Rain = 0
KSM1 241215Z 01012KT 05/M05 A3007 RMK A01 T00511049  RH  049%=      5-min Rain = 0
KSM1 241220Z 01013G18KT 05/M05 A3007 RMK A01 T00531049  RH  048%=      5-min Rain = 0
KSM1 241225Z 01013G18KT 05/M05 A3007 RMK A01 T00521049  RH  048%=      5-min Rain = 0
KSM1 241230Z 01013KT 05/M05 A3007 RMK A01 T00511050  RH  048%=      5-min Rain = 0
KSM1 241235Z 01012KT 05/M05 A3007 RMK A01 T00501050  RH  049%=      5-min Rain = 0
KSM1 241240Z 00011KT 05/M05 A3008 RMK A01 T00481051  RH  049%=      5-min Rain = 0
KSM1 241245Z 36010KT 05/M05 A3008 RMK A01 T00451052  RH  050%=      5-min Rain = 0
KSM1 241250Z 36010KT 04/M05 A3008 RMK A01 T00431052  RH  050%=      5-min Rain = 0
KSM1 241255Z 35009KT 04/M05 A3008 RMK A01 T00401052  RH  051%=      5-min Rain = 0
KSM1 241300Z 35010KT 04/M05 A3009 RMK A01 T00381052  RH  052%=      5-min Rain = 0
KSM1 241305Z 35011KT 04/M05 A3009 RMK A01 T00371051  RH  053%=      5-min Rain = 0
KSM1 241310Z 35011KT 04/M05 A3009 RMK A01 T00381050  RH  053%=      5-min Rain = 0
KSM1 241315Z 35010KT 04/M05 A301 RMK A01 T00361050  RH  053%=      5-min Rain = 0
KSM1 241320Z 36010KT 04/M05 A301 RMK A01 T00351050  RH  054%=      5-min Rain = 0
KSM1 241325Z 35011KT 04/M05 A301 RMK A01 T00351050  RH  054%=      5-min Rain = 0
KSM1 241330Z 35010KT 03/M05 A301 RMK A01 T00341051  RH  054%=      5-min Rain = 0
KSM1 241335Z 35009KT 03/M05 A3011 RMK A01 T00321051  RH  054%=      5-min Rain = 0
KSM1 241340Z 35010KT 03/M05 A3011 RMK A01 T00331051  RH  054%=      5-min Rain = 0
KSM1 241345Z 35009KT 03/M05 A3011 RMK A01 T00341051  RH  054%=      5-min Rain = 0
KSM1 241350Z 35010KT 04/M05 A3012 RMK A01 T00361051  RH  053%=      5-min Rain = 0
KSM1 241355Z 35011KT 04/M05 A3012 RMK A01 T00381050  RH  053%=      5-min Rain = 0
KSM1 241400Z 35011KT 04/M05 A3012 RMK A01 T00401050  RH  052%=      5-min Rain = 0
KSM1 241405Z 36011KT 04/M05 A3013 RMK A01 T00431050  RH  051%=      5-min Rain = 0
KSM1 241410Z 36011KT 05/M05 A3013 RMK A01 T00451049  RH  050%=      5-min Rain = 0
KSM1 241415Z 36011KT 05/M05 A3014 RMK A01 T00481048  RH  050%=      5-min Rain = 0
KSM1 241420Z 00011KT 05/M05 A3014 RMK A01 T00511047  RH  049%=      5-min Rain = 0
KSM1 241425Z 00011KT 05/M05 A3014 RMK A01 T00541047  RH  048%=      5-min Rain = 0
KSM1 241430Z 00012G17KT 06/M05 A3015 RMK A01 T00571046  RH  048%=      5-min Rain = 0
KSM1 241435Z 00012KT 06/M05 A3015 RMK A01 T00591046  RH  047%=      5-min Rain = 0
KSM1 241440Z 01013KT 06/M05 A3016 RMK A01 T00621045  RH  046%=      5-min Rain = 0
KSM1 241445Z 01013KT 07/M05 A3016 RMK A01 T00651045  RH  045%=      5-min Rain = 0
KSM1 241450Z 01014G19KT 07/M05 A3016 RMK A01 T00671045  RH  045%=      5-min Rain = 0
KSM1 241455Z 01015KT 07/M05 A3016 RMK A01 T00671046  RH  044%=      5-min Rain = 0
KSM1 241500Z 02013G18KT 07/M05 A3016 RMK A01 T00701045  RH  044%=      5-min Rain = 0
KSM1 241505Z 02016G21KT 07/M05 A3017 RMK A01 T00731045  RH  043%=      5-min Rain = 0
KSM1 241510Z 02016KT 08/M05 A3017 RMK A01 T00751046  RH  042%=      5-min Rain = 0
KSM1 241515Z 02016KT 08/M05 A3017 RMK A01 T00761046  RH  042%=      5-min Rain = 0
KSM1 241520Z 02016G21KT 08/M05 A3017 RMK A01 T00781046  RH  041%=      5-min Rain = 0
KSM1 241525Z 03016G23KT 08/M05 A3017 RMK A01 T00811046  RH  040%=      5-min Rain = 0
KSM1 241530Z 03016KT 08/M05 A3017 RMK A01 T00831047  RH  040%=      5-min Rain = 0
KSM1 241535Z 02017G22KT 09/M05 A3018 RMK A01 T00861046  RH  039%=      5-min Rain = 0
KSM1 241540Z 03018G23KT 09/M05 A3018 RMK A01 T00881047  RH  038%=      5-min Rain = 0
KSM1 241545Z 03017G22KT 09/M05 A3018 RMK A01 T00921046  RH  038%=      5-min Rain = 0
KSM1 241550Z 03016G22KT 10/M05 A3018 RMK A01 T00951046  RH  037%=      5-min Rain = 0
KSM1 241555Z 03016G22KT 10/M05 A3018 RMK A01 T00971046  RH  036%=      5-min Rain = 0
KSM1 241600Z 03017KT 10/M05 A3017 RMK A01 T00981047  RH  036%=      5-min Rain = 0
KSM1 241605Z 03017KT 10/M05 A3018 RMK A01 T00981046  RH  036%=      5-min Rain = 0
KSM1 241610Z 04017KT 10/M05 A3018 RMK A01 T00991046  RH  036%=      5-min Rain = 0
KSM1 241615Z 03016G21KT 10/M05 A3018 RMK A01 T01011046  RH  035%=      5-min Rain = 0
KSM1 241620Z 02017G22KT 10/M05 A3018 RMK A01 T01001046  RH  036%=      5-min Rain = 0
KSM1 241625Z 04015KT 10/M04 A3018 RMK A01 T01041044  RH  035%=      5-min Rain = 0
KSM1 241630Z 03016KT 10/M05 A3018 RMK A01 T01041045  RH  035%=      5-min Rain = 0
KSM1 241635Z 04015G22KT 11/M04 A3018 RMK A01 T01071043  RH  035%=      5-min Rain = 0
KSM1 241640Z 03017KT 11/M04 A3018 RMK A01 T01061044  RH  035%=      5-min Rain = 0
KSM1 241645Z 03015G21KT 11/M04 A3018 RMK A01 T01091042  RH  035%=      5-min Rain = 0
KSM1 241650Z 03016G21KT 11/M04 A3018 RMK A01 T01091042  RH  035%=      5-min Rain = 0
KSM1 241655Z 03015G21KT 11/M04 A3018 RMK A01 T01101041  RH  035%=      5-min Rain = 0
KSM1 241700Z 03015G20KT 11/M04 A3018 RMK A01 T01121041  RH  034%=      5-min Rain = 0
KSM1 241705Z 03015G20KT 11/M04 A3018 RMK A01 T01111041  RH  034%=      5-min Rain = 0
KSM1 241710Z 04013G20KT 12/M04 A3018 RMK A01 T01151039  RH  034%=      5-min Rain = 0
KSM1 241715Z 04014G20KT 12/M04 A3019 RMK A01 T01181040  RH  033%=      5-min Rain = 0
KSM1 241720Z 04014G20KT 12/M04 A3019 RMK A01 T01181039  RH  033%=      5-min Rain = 0
KSM1 241725Z 05013G18KT 12/M04 A3019 RMK A01 T01181040  RH  033%=      5-min Rain = 0
KSM1 241730Z 04013KT 12/M04 A3019 RMK A01 T01191037  RH  033%=      5-min Rain = 0
KSM1 241735Z 05013G18KT 12/M04 A3019 RMK A01 T01211039  RH  033%=      5-min Rain = 0
KSM1 241740Z 05013G18KT 12/M04 A3018 RMK A01 T01211037  RH  033%=      5-min Rain = 0
KSM1 241745Z 05014KT 13/M04 A3018 RMK A01 T01251037  RH  032%=      5-min Rain = 0
KSM1 241750Z 05012KT 12/M04 A3018 RMK A01 T01231037  RH  033%=      5-min Rain = 0
KSM1 241755Z 06013G19KT 13/M04 A3018 RMK A01 T01261037  RH  032%=      5-min Rain = 0
KSM1 241800Z 07013KT 13/M04 A3018 RMK A01 T01261038  RH  032%=      5-min Rain = 0
KSM1 241805Z 06011G18KT 13/M04 A3018 RMK A01 T01301036  RH  032%=      5-min Rain = 0
KSM1 241810Z 06011KT 13/M04 A3018 RMK A01 T01281036  RH  032%=      5-min Rain = 0
KSM1 241815Z 07010KT 13/M04 A3018 RMK A01 T01321035  RH  031%=      5-min Rain = 0
KSM1 241820Z 05010KT 13/M04 A3018 RMK A01 T01311036  RH  031%=      5-min Rain = 0
KSM1 241825Z 05010G15KT 13/M03 A3018 RMK A01 T01321034  RH  032%=      5-min Rain = 0
KSM1 241830Z 04008KT 14/M03 A3018 RMK A01 T01361033  RH  031%=      5-min Rain = 0
KSM1 241835Z 07010KT 14/M04 A3017 RMK A01 T01381035  RH  030%=      5-min Rain = 0
KSM1 241840Z 07010KT 14/M04 A3017 RMK A01 T01371035  RH  030%=      5-min Rain = 0
KSM1 241845Z 05008KT 14/M03 A3017 RMK A01 T01361034  RH  031%=      5-min Rain = 0
KSM1 241850Z 05009G14KT 14/M04 A3016 RMK A01 T01351035  RH  031%=      5-min Rain = 0
KSM1 241855Z 07007KT 14/M03 A3016 RMK A01 T01371034  RH  031%=      5-min Rain = 0
KSM1 241900Z 06007G13KT 14/M03 A3016 RMK A01 T01371033  RH  031%=      5-min Rain = 0
KSM1 241905Z 03005G11KT 14/M03 A3016 RMK A01 T01411032  RH  030%=      5-min Rain = 0
KSM1 241910Z 07009KT 15/M03 A3015 RMK A01 T01491032  RH  029%=      5-min Rain = 0
KSM1 241915Z 06009KT 15/M03 A3015 RMK A01 T01461033  RH  029%=      5-min Rain = 0
KSM1 241920Z 04007KT 15/M03 A3014 RMK A01 T01471033  RH  029%=      5-min Rain = 0
KSM1 241925Z 07008G13KT 15/M03 A3014 RMK A01 T01461033  RH  029%=      5-min Rain = 0
KSM1 241930Z 08009G15KT 15/M03 A3013 RMK A01 T01481032  RH  029%=      5-min Rain = 0
KSM1 241935Z 08007KT 15/M03 A3013 RMK A01 T01451034  RH  029%=      5-min Rain = 0
KSM1 241940Z 07008KT 15/M03 A3013 RMK A01 T01461033  RH  029%=      5-min Rain = 0
KSM1 241945Z 06006G11KT 15/M03 A3013 RMK A01 T01471032  RH  029%=      5-min Rain = 0
KSM1 241950Z 03005G10KT 15/M03 A3013 RMK A01 T01491033  RH  028%=      5-min Rain = 0
KSM1 241955Z 07008KT 15/M03 A3013 RMK A01 T01491033  RH  028%=      5-min Rain = 0
KSM1 242000Z 08006KT 15/M03 A3013 RMK A01 T01521033  RH  028%=      5-min Rain = 0
KSM1 242005Z 05006G11KT 15/M03 A3012 RMK A01 T01501033  RH  028%=      5-min Rain = 0
KSM1 242010Z 07009G14KT 15/M03 A3012 RMK A01 T01521032  RH  028%=      5-min Rain = 0
KSM1 242015Z 08006KT 15/M03 A3011 RMK A01 T01501033  RH  028%=      5-min Rain = 0
KSM1 242020Z 08008G13KT 15/M03 A3011 RMK A01 T01531032  RH  028%=      5-min Rain = 0
KSM1 242025Z 11007G12KT 15/M03 A3011 RMK A01 T01531033  RH  028%=      5-min Rain = 0
KSM1 242030Z 08006KT 15/M03 A301 RMK A01 T01541033  RH  028%=      5-min Rain = 0
KSM1 242035Z 09006G11KT 15/M03 A301 RMK A01 T01541033  RH  028%=      5-min Rain = 0
KSM1 242040Z 07006KT 16/M03 A301 RMK A01 T01571033  RH  027%=      5-min Rain = 0
KSM1 242045Z 08006KT 16/M03 A301 RMK A01 T01601032  RH  027%=      5-min Rain = 0
KSM1 242050Z 09005KT 16/M03 A3009 RMK A01 T01571034  RH  027%=      5-min Rain = 0
KSM1 242055Z 12005KT 16/M03 A3009 RMK A01 T01561032  RH  027%=      5-min Rain = 0
KSM1 242100Z 12006KT 16/M03 A3009 RMK A01 T01571033  RH  027%=      5-min Rain = 0
KSM1 242105Z 14002KT 16/M03 A3009 RMK A01 T01611034  RH  026%=      5-min Rain = 0
KSM1 242110Z 12003KT 16/M03 A301 RMK A01 T01631033  RH  026%=      5-min Rain = 0
KSM1 242115Z 11004G11KT 16/M03 A3009 RMK A01 T01621032  RH  026%=      5-min Rain = 0
KSM1 242120Z 11004G9KT 16/M03 A3009 RMK A01 T01631033  RH  026%=      5-min Rain = 0
KSM1 242125Z 12004KT 16/M03 A3009 RMK A01 T01621032  RH  026%=      5-min Rain = 0
KSM1 242130Z 11005KT 17/M03 A3009 RMK A01 T01691032  RH  025%=      5-min Rain = 0
KSM1 242135Z 08004KT 16/M03 A3009 RMK A01 T01641033  RH  026%=      5-min Rain = 0
KSM1 242140Z 08007G12KT 17/M03 A3009 RMK A01 T01661032  RH  026%=      5-min Rain = 0
KSM1 242145Z 09005G10KT 16/M03 A3009 RMK A01 T01621034  RH  026%=      5-min Rain = 0
KSM1 242150Z 08003G9KT 16/M03 A3009 RMK A01 T01641033  RH  026%=      5-min Rain = 0
KSM1 242155Z 08003G8KT 16/M03 A3009 RMK A01 T01641034  RH  026%=      5-min Rain = 0
KSM1 242200Z 09006KT 17/M03 A3009 RMK A01 T01681033  RH  025%=      5-min Rain = 0
KSM1 242205Z 09006G11KT 17/M03 A3009 RMK A01 T01651034  RH  025%=      5-min Rain = 0
KSM1 242210Z 10005G10KT 17/M03 A3009 RMK A01 T01681034  RH  025%=      5-min Rain = 0
KSM1 242215Z 12006KT 17/M03 A3009 RMK A01 T01671034  RH  025%=      5-min Rain = 0
KSM1 242220Z 16004KT 17/M04 A3009 RMK A01 T01701036  RH  024%=      5-min Rain = 0
KSM1 242225Z 12004KT 17/M04 A3008 RMK A01 T01691036  RH  025%=      5-min Rain = 0
KSM1 242230Z 11005KT 17/M03 A3008 RMK A01 T01721034  RH  024%=      5-min Rain = 0
KSM1 242235Z 09005KT 17/M04 A3008 RMK A01 T01701035  RH  025%=      5-min Rain = 0
KSM1 242240Z 12005KT 17/M04 A3008 RMK A01 T01681035  RH  025%=      5-min Rain = 0
KSM1 242245Z 14007KT 17/M03 A3008 RMK A01 T01721034  RH  024%=      5-min Rain = 0
KSM1 242250Z 12005KT 17/M04 A3008 RMK A01 T01711035  RH  024%=      5-min Rain = 0
KSM1 242255Z 15004KT 17/M03 A3008 RMK A01 T01711034  RH  025%=      5-min Rain = 0
KSM1 242300Z 10006KT 17/M03 A3008 RMK A01 T01711034  RH  025%=      5-min Rain = 0
KSM1 242305Z 12005G10KT 17/M03 A3007 RMK A01 T01731033  RH  024%=      5-min Rain = 0
KSM1 242310Z 12006G11KT 17/M03 A3007 RMK A01 T01711034  RH  024%=      5-min Rain = 0
KSM1 242315Z 11006KT 17/M03 A3007 RMK A01 T01711033  RH  025%=      5-min Rain = 0
KSM1 242320Z 12010KT 17/M03 A3007 RMK A01 T01721033  RH  025%=      5-min Rain = 0
KSM1 242325Z 14007KT 17/M03 A3006 RMK A01 T01721034  RH  024%=      5-min Rain = 0
KSM1 242330Z 12009KT 17/M03 A3006 RMK A01 T01711034  RH  025%=      5-min Rain = 0
KSM1 242335Z 11007KT 17/M03 A3006 RMK A01 T01711032  RH  025%=      5-min Rain = 0
KSM1 242340Z 13007KT 17/M03 A3006 RMK A01 T01721033  RH  025%=      5-min Rain = 0
KSM1 242345Z 12008KT 17/M03 A3006 RMK A01 T01721032  RH  025%=      5-min Rain = 0
KSM1 242350Z 12007KT 17/M03 A3006 RMK A01 T01701034  RH  025%=      5-min Rain = 0
KSM1 242355Z 12008KT 17/M03 A3006 RMK A01 T01691031  RH  025%=      5-min Rain = 0
KSM1 250000Z 11008KT 17/M03 A3006 RMK A01 T01661030  RH  026%=      5-min Rain = 0
KSM1 250005Z 11008KT 16/M03 A3006 RMK A01 T01641031  RH  026%=      5-min Rain = 0
KSM1 250010Z 12008KT 16/M03 A3006 RMK A01 T01621031  RH  027%=      5-min Rain = 0
KSM1 250015Z 11007KT 16/M03 A3006 RMK A01 T01601029  RH  027%=      5-min Rain = 0
KSM1 250020Z 11007KT 16/M03 A3006 RMK A01 T01551027  RH  029%=      5-min Rain = 0
KSM1 250025Z 11009KT 15/M03 A3006 RMK A01 T01511028  RH  029%=      5-min Rain = 0
KSM1 250030Z 11008KT 15/M03 A3006 RMK A01 T01471029  RH  030%=      5-min Rain = 0
KSM1 250035Z 11008KT 14/M03 A3006 RMK A01 T01431030  RH  030%=      5-min Rain = 0
KSM1 250040Z 11007KT 14/M03 A3007 RMK A01 T01381031  RH  031%=      5-min Rain = 0
KSM1 250045Z 10007KT 13/M03 A3007 RMK A01 T01311034  RH  032%=      5-min Rain = 0
KSM1 250050Z 09007KT 12/M04 A3008 RMK A01 T01211037  RH  033%=      5-min Rain = 0
KSM1 250055Z 09009KT 12/M04 A3008 RMK A01 T01171036  RH  034%=      5-min Rain = 0
KSM1 250100Z 09009KT 12/M03 A3008 RMK A01 T01191033  RH  035%=      5-min Rain = 0
KSM1 250105Z 09009KT 11/M03 A3008 RMK A01 T01141034  RH  036%=      5-min Rain = 0
KSM1 250110Z 10009KT 11/M03 A3008 RMK A01 T01091033  RH  037%=      5-min Rain = 0
KSM1 250115Z 10009KT 11/M03 A3008 RMK A01 T01061034  RH  038%=      5-min Rain = 0
KSM1 250120Z 09009KT 10/M04 A3008 RMK A01 T01031035  RH  038%=      5-min Rain = 0
KSM1 250125Z 09009KT 10/M03 A3008 RMK A01 T01021034  RH  038%=      5-min Rain = 0
KSM1 250130Z 09009KT 10/M03 A3008 RMK A01 T01041033  RH  038%=      5-min Rain = 0
KSM1 250135Z 09009KT 10/M03 A3008 RMK A01 T01041031  RH  039%=      5-min Rain = 0
KSM1 250140Z 09009KT 11/M03 A3009 RMK A01 T01051032  RH  038%=      5-min Rain = 0
KSM1 250145Z 09009KT 11/M03 A3009 RMK A01 T01061032  RH  038%=      5-min Rain = 0
KSM1 250150Z 09008KT 10/M03 A3009 RMK A01 T01021032  RH  039%=      5-min Rain = 0
KSM1 250155Z 08008KT 10/M03 A3009 RMK A01 T01011033  RH  039%=      5-min Rain = 0
KSM1 250200Z 08008KT 10/M03 A301 RMK A01 T00981034  RH  039%=      5-min Rain = 0
KSM1 250205Z 08009KT 10/M03 A301 RMK A01 T00961034  RH  040%=      5-min Rain = 0
KSM1 250210Z 08009KT 09/M04 A301 RMK A01 T00941035  RH  040%=      5-min Rain = 0
KSM1 250215Z 07009KT 09/M04 A301 RMK A01 T00911035  RH  041%=      5-min Rain = 0
KSM1 250220Z 08009KT 09/M03 A301 RMK A01 T00901034  RH  042%=      5-min Rain = 0
KSM1 250225Z 08010KT 09/M03 A301 RMK A01 T00931032  RH  041%=      5-min Rain = 0
KSM1 250230Z 08010KT 09/M03 A301 RMK A01 T00941032  RH  041%=      5-min Rain = 0
KSM1 250235Z 07009KT 09/M03 A3011 RMK A01 T00921032  RH  042%=      5-min Rain = 0
KSM1 250240Z 08009KT 09/M03 A3011 RMK A01 T00891033  RH  042%=      5-min Rain = 0
KSM1 250245Z 08010KT 09/M03 A3011 RMK A01 T00901032  RH  043%=      5-min Rain = 0
KSM1 250250Z 08011KT 09/M03 A3011 RMK A01 T00911031  RH  042%=      5-min Rain = 0
KSM1 250255Z 08011KT 09/M03 A3011 RMK A01 T00911031  RH  043%=      5-min Rain = 0
KSM1 250300Z 08011KT 09/M03 A3012 RMK A01 T00901031  RH  043%=      5-min Rain = 0
KSM1 250305Z 08010KT 09/M03 A3012 RMK A01 T00891031  RH  043%=      5-min Rain = 0
KSM1 250310Z 08010KT 09/M03 A3012 RMK A01 T00861032  RH  044%=      5-min Rain = 0
KSM1 250315Z 08009KT 08/M03 A3012 RMK A01 T00821033  RH  044%=      5-min Rain = 0
KSM1 250320Z 08009KT 08/M03 A3013 RMK A01 T00791032  RH  045%=      5-min Rain = 0
KSM1 250325Z 08008KT 08/M03 A3013 RMK A01 T00771032  RH  046%=      5-min Rain = 0
KSM1 250330Z 09010KT 08/M03 A3013 RMK A01 T00771032  RH  046%=      5-min Rain = 0
KSM1 250335Z 08009KT 08/M03 A3013 RMK A01 T00761033  RH  047%=      5-min Rain = 0
KSM1 250340Z 08009KT 07/M03 A3014 RMK A01 T00741033  RH  047%=      5-min Rain = 0
KSM1 250345Z 08010KT 07/M03 A3013 RMK A01 T00741033  RH  047%=      5-min Rain = 0
KSM1 250350Z 09009KT 07/M03 A3014 RMK A01 T00741033  RH  047%=      5-min Rain = 0
KSM1 250355Z 08009KT 07/M03 A3014 RMK A01 T00741033  RH  047%=      5-min Rain = 0
KSM1 250400Z 08010KT 07/M03 A3014 RMK A01 T00721033  RH  047%=      5-min Rain = 0
KSM1 250405Z 09009KT 07/M03 A3015 RMK A01 T00711033  RH  048%=      5-min Rain = 0
KSM1 250410Z 09009KT 07/M03 A3015 RMK A01 T00691031  RH  049%=      5-min Rain = 0
KSM1 250415Z 08009KT 07/M03 A3015 RMK A01 T00691032  RH  049%=      5-min Rain = 0
KSM1 250420Z 08010KT 07/M03 A3015 RMK A01 T00701033  RH  048%=      5-min Rain = 0
KSM1 250425Z 09011KT 07/M03 A3015 RMK A01 T00721032  RH  048%=      5-min Rain = 0
KSM1 250430Z 09010KT 07/M03 A3015 RMK A01 T00711032  RH  048%=      5-min Rain = 0
KSM1 250435Z 09009KT 07/M03 A3015 RMK A01 T00701033  RH  048%=      5-min Rain = 0
KSM1 250440Z 09010KT 07/M03 A3015 RMK A01 T00691033  RH  048%=      5-min Rain = 0
KSM1 250445Z 09011KT 07/M03 A3015 RMK A01 T00681032  RH  049%=      5-min Rain = 0
KSM1 250450Z 09011KT 07/M03 A3016 RMK A01 T00691032  RH  049%=      5-min Rain = 0
KSM1 250455Z 08010KT 07/M03 A3016 RMK A01 T00691034  RH  048%=      5-min Rain = 0
KSM1 250500Z 09011KT 07/M03 A3016 RMK A01 T00691034  RH  048%=      5-min Rain = 0
KSM1 250505Z 09011KT 07/M03 A3015 RMK A01 T00681034  RH  048%=      5-min Rain = 0
KSM1 250510Z 09010KT 07/M03 A3015 RMK A01 T00661034  RH  049%=      5-min Rain = 0
KSM1 250515Z 08009KT 06/M04 A3015 RMK A01 T00631035  RH  050%=      5-min Rain = 0
KSM1 250520Z 09010KT 06/M04 A3016 RMK A01 T00611035  RH  050%=      5-min Rain = 0
KSM1 250525Z 09010KT 06/M03 A3015 RMK A01 T00611034  RH  051%=      5-min Rain = 0
KSM1 250530Z 09009KT 06/M04 A3016 RMK A01 T00581035  RH  051%=      5-min Rain = 0
KSM1 250535Z 09009KT 06/M04 A3016 RMK A01 T00561035  RH  052%=      5-min Rain = 0
KSM1 250540Z 09008KT 06/M04 A3016 RMK A01 T00551035  RH  053%=      5-min Rain = 0
KSM1 250545Z 09008KT 05/M03 A3016 RMK A01 T00521034  RH  054%=      5-min Rain = 0
KSM1 250550Z 09008KT 05/M03 A3016 RMK A01 T00491034  RH  055%=      5-min Rain = 0
KSM1 250555Z 09007KT 05/M04 A3016 RMK A01 T00461035  RH  056%=      5-min Rain = 0

Page generated in 0.0198 seconds.